Time;durP1;ratioP1;P1;durP2;ratioP2;P2;SDS_P1;SDS_P2;PMS_P1;PMS_P2;Temp;Humidity;BMP_temperature;BMP_pressure;BME280_temperature;BME280_humidity;BME280_pressure;Samples;Min_cycle;Max_cycle;Signal;HPM_P1;HPM_P2
2021/12/28 00:00:33;;;;;;;0.43;0.20;;;8.20;99.90;;;;;;5069862;28;20071;-72
2021/12/28 00:02:59;;;;;;;0.10;0.10;;;8.20;99.90;;;;;;5074653;28;20032;-71
2021/12/28 00:05:27;;;;;;;0.30;0.30;;;8.20;99.90;;;;;;5073698;28;20115;-73
2021/12/28 00:07:54;;;;;;;0.25;0.25;;;8.20;99.90;;;;;;5073655;28;20039;-72
2021/12/28 00:10:20;;;;;;;0.05;0.05;;;8.30;99.90;;;;;;5074061;28;20489;-71
2021/12/28 00:12:47;;;;;;;0.00;0.00;;;8.30;99.90;;;;;;5074734;28;20037;-72
2021/12/28 00:17:59;;;;;;;0.00;0.00;;;8.40;99.90;;;;;;5073396;28;20033;-72
2021/12/28 00:20:46;;;;;;;0.43;0.43;;;8.50;99.90;;;;;;5073967;28;20033;-72
2021/12/28 00:23:28;;;;;;;1.20;1.10;;;8.50;99.90;;;;;;5073598;28;20124;-71
2021/12/28 00:25:55;;;;;;;0.00;0.00;;;8.50;99.90;;;;;;5057239;28;20044;-72
2021/12/28 00:28:22;;;;;;;0.20;0.20;;;8.60;99.90;;;;;;5073640;28;20024;-72
2021/12/28 00:30:49;;;;;;;0.30;0.30;;;8.70;99.90;;;;;;5073483;28;20047;-72
2021/12/28 00:33:17;;;;;;;0.00;0.00;;;8.70;99.90;;;;;;5074384;28;20150;-71
2021/12/28 00:35:44;;;;;;;0.22;0.22;;;8.70;99.90;;;;;;5074430;28;20123;-72
2021/12/28 00:38:18;;;;;;;0.38;0.38;;;8.80;99.90;;;;;;5056618;28;20036;-71
2021/12/28 00:40:46;;;;;;;0.10;0.10;;;8.80;99.90;;;;;;5074580;28;20404;-71
2021/12/28 00:43:12;;;;;;;1.65;0.90;;;8.90;99.90;;;;;;5073220;28;20029;-71
2021/12/28 00:45:38;;;;;;;0.95;0.77;;;9.00;99.90;;;;;;5073128;28;20237;-71
2021/12/28 00:48:04;;;;;;;9.10;1.95;;;9.10;99.90;;;;;;5072878;28;20044;-72
2021/12/28 00:50:31;;;;;;;0.00;0.00;;;9.20;99.90;;;;;;5073400;28;20561;-72
2021/12/28 00:52:57;;;;;;;0.10;0.10;;;9.20;99.90;;;;;;5074363;28;20035;-71
2021/12/28 00:55:25;;;;;;;0.00;0.00;;;9.30;99.90;;;;;;5074315;28;20036;-72
2021/12/28 00:57:51;;;;;;;0.00;0.00;;;9.30;99.90;;;;;;5056024;28;20039;-72
2021/12/28 01:00:28;;;;;;;0.38;0.38;;;9.30;99.90;;;;;;5072736;28;20037;-72
2021/12/28 01:02:56;;;;;;;0.65;0.65;;;9.20;99.90;;;;;;5056179;28;20747;-72
2021/12/28 01:05:24;;;;;;;0.10;0.10;;;9.20;99.90;;;;;;5074160;28;20086;-71
2021/12/28 01:07:51;;;;;;;1.48;1.38;;;9.20;99.90;;;;;;5055981;28;20032;-72
2021/12/28 01:10:22;;;;;;;0.20;0.20;;;9.20;99.90;;;;;;5072557;28;20068;-71
2021/12/28 01:12:52;;;;;;;;;;;9.00;99.90;;;;;;5038661;28;20028;-71
2021/12/28 01:15:20;;;;;;;0.98;0.98;;;9.00;99.90;;;;;;5072978;28;20353;-72
2021/12/28 01:17:46;;;;;;;0.57;0.57;;;9.00;99.90;;;;;;5073567;28;20033;-72
2021/12/28 01:20:14;;;;;;;0.00;0.00;;;8.80;99.90;;;;;;5073414;28;20377;-72
2021/12/28 01:22:41;;;;;;;0.20;0.20;;;8.80;99.90;;;;;;5073704;28;20036;-72
2021/12/28 01:25:09;;;;;;;0.65;0.65;;;8.80;99.90;;;;;;5055947;28;20036;-72
2021/12/28 01:27:35;;;;;;;0.73;0.73;;;8.70;99.90;;;;;;5072293;28;20033;-72
2021/12/28 01:30:01;;;;;;;0.00;0.00;;;8.70;99.90;;;;;;5073381;28;20459;-73
2021/12/28 01:32:26;;;;;;;0.20;0.20;;;8.70;99.90;;;;;;5055524;28;20112;-72
2021/12/28 01:34:52;;;;;;;0.00;0.00;;;8.70;99.90;;;;;;5073543;28;20028;-73
2021/12/28 01:37:18;;;;;;;0.80;0.80;;;8.70;99.90;;;;;;5072341;28;20370;-72
2021/12/28 01:39:44;;;;;;;0.55;0.55;;;8.60;99.90;;;;;;5073175;28;20032;-73
2021/12/28 01:42:10;;;;;;;0.17;0.17;;;8.50;99.90;;;;;;5073116;28;20036;-73
2021/12/28 01:44:37;;;;;;;0.10;0.10;;;8.50;99.90;;;;;;5073204;28;20066;-72
2021/12/28 01:47:03;;;;;;;0.20;0.20;;;8.40;99.90;;;;;;5055224;28;20037;-73
2021/12/28 01:49:29;;;;;;;0.00;0.00;;;8.40;99.90;;;;;;5073342;28;20037;-73
2021/12/28 01:51:55;;;;;;;0.00;0.00;;;8.30;99.90;;;;;;5072997;28;20036;-72
2021/12/28 01:54:21;;;;;;;0.10;0.10;;;8.30;99.90;;;;;;5071996;28;20127;-72
2021/12/28 01:56:48;;;;;;;0.20;0.20;;;8.30;99.90;;;;;;5072997;28;20028;-72
2021/12/28 01:59:18;;;;;;;1.38;0.98;;;8.30;99.90;;;;;;5072984;28;20066;-73
2021/12/28 02:01:45;;;;;;;0.17;0.17;;;8.30;99.90;;;;;;5055091;28;20132;-72
2021/12/28 02:04:27;;;;;;;0.00;0.00;;;8.30;99.90;;;;;;5072577;28;20047;-72
2021/12/28 02:06:55;;;;;;;0.50;0.50;;;8.30;99.90;;;;;;5071428;28;20412;-72
2021/12/28 02:09:21;;;;;;;0.10;0.10;;;8.30;99.90;;;;;;5071459;28;20630;-72
2021/12/28 02:11:48;;;;;;;0.20;0.20;;;8.30;99.90;;;;;;5071318;28;20115;-72
2021/12/28 02:14:14;;;;;;;0.65;0.65;;;8.30;99.90;;;;;;5071321;28;20040;-72
2021/12/28 02:16:43;;;;;;;0.00;0.00;;;8.40;99.90;;;;;;5071572;28;20032;-72
2021/12/28 02:19:12;;;;;;;0.43;0.43;;;8.50;99.90;;;;;;5072375;28;20488;-72
2021/12/28 02:21:39;;;;;;;0.00;0.00;;;8.50;99.90;;;;;;5072526;28;20465;-72
2021/12/28 02:24:08;;;;;;;0.75;0.75;;;8.50;99.90;;;;;;5054225;28;20044;-72
2021/12/28 02:26:35;;;;;;;0.00;0.00;;;8.50;99.90;;;;;;5071157;28;20538;-72
2021/12/28 02:29:01;;;;;;;0.40;0.40;;;8.50;99.90;;;;;;5072180;28;20082;-73
2021/12/28 02:31:27;;;;;;;0.00;0.00;;;8.60;99.90;;;;;;5072483;28;20551;-72
2021/12/28 02:33:54;;;;;;;0.00;0.00;;;8.60;99.90;;;;;;5071079;28;20529;-73
2021/12/28 02:36:20;;;;;;;0.82;0.82;;;8.60;99.90;;;;;;5071198;28;20033;-73
2021/12/28 02:38:47;;;;;;;0.70;0.70;;;8.60;99.90;;;;;;5071141;28;20032;-72
2021/12/28 02:41:14;;;;;;;1.27;1.17;;;8.60;99.90;;;;;;5070951;28;20317;-72
2021/12/28 02:43:42;;;;;;;0.10;0.10;;;8.60;99.90;;;;;;5072311;28;20028;-72
2021/12/28 02:46:09;;;;;;;0.10;0.10;;;8.60;99.90;;;;;;5054178;28;20041;-72
2021/12/28 02:48:37;;;;;;;0.00;0.00;;;8.60;99.90;;;;;;5072276;28;20028;-72
2021/12/28 02:51:10;;;;;;;0.00;0.00;;;8.70;99.90;;;;;;5071814;28;20111;-72
2021/12/28 02:53:36;;;;;;;0.00;0.00;;;8.70;99.90;;;;;;5071017;28;20033;-72
2021/12/28 02:56:03;;;;;;;0.00;0.00;;;8.60;99.90;;;;;;5070823;28;20432;-72
2021/12/28 02:58:37;;;;;;;0.00;0.00;;;8.70;99.90;;;;;;5071741;28;20575;-72
2021/12/28 03:01:21;;;;;;;0.10;0.10;;;8.70;99.90;;;;;;5070693;28;20481;-72
2021/12/28 03:03:54;;;;;;;4.40;1.17;;;8.70;99.90;;;;;;5072027;28;20113;-72
2021/12/28 03:06:23;;;;;;;0.00;0.00;;;8.70;99.90;;;;;;5070652;28;20401;-73
2021/12/28 03:08:54;;;;;;;0.10;0.10;;;8.70;99.90;;;;;;5070788;28;20037;-72
2021/12/28 03:11:21;;;;;;;0.00;0.00;;;8.70;99.90;;;;;;5070425;28;20036;-72
2021/12/28 03:13:51;;;;;;;0.00;0.00;;;8.70;99.90;;;;;;5070372;28;20051;-72
2021/12/28 03:16:19;;;;;;;0.00;0.00;;;8.70;99.90;;;;;;5071665;28;20071;-72
2021/12/28 03:18:46;;;;;;;0.45;0.45;;;8.70;99.90;;;;;;5070666;28;20043;-72
2021/12/28 03:21:16;;;;;;;0.00;0.00;;;8.60;99.90;;;;;;5070271;28;20465;-72
2021/12/28 03:23:42;;;;;;;0.52;0.52;;;8.60;99.90;;;;;;5071515;28;20473;-73
2021/12/28 03:26:10;;;;;;;16.25;1.17;;;8.50;99.90;;;;;;5070216;28;20044;-72
2021/12/28 03:28:40;;;;;;;3.20;1.55;;;8.60;99.90;;;;;;5070420;28;20025;-72
2021/12/28 03:31:09;;;;;;;0.00;0.00;;;8.70;99.90;;;;;;5071267;28;20029;-73
2021/12/28 03:33:44;;;;;;;0.00;0.00;;;8.70;99.90;;;;;;5070311;28;20037;-72
2021/12/28 03:36:11;;;;;;;0.00;0.00;;;8.70;99.90;;;;;;5072337;28;20036;-73
2021/12/28 03:38:40;;;;;;;0.32;0.32;;;8.80;99.90;;;;;;5075820;28;20029;-73
2021/12/28 03:41:07;;;;;;;0.10;0.10;;;8.80;99.90;;;;;;5075395;28;20493;-72
2021/12/28 03:43:37;;;;;;;0.00;0.00;;;8.90;99.90;;;;;;5075813;28;20028;-72
2021/12/28 03:46:03;;;;;;;0.00;0.00;;;8.90;99.90;;;;;;5073905;28;20497;-72
2021/12/28 03:48:29;;;;;;;0.22;0.22;;;8.90;99.90;;;;;;5074280;28;20477;-72
2021/12/28 03:50:55;;;;;;;0.00;0.00;;;8.90;99.90;;;;;;5074090;28;20078;-72
2021/12/28 03:53:20;;;;;;;0.10;0.10;;;9.00;99.90;;;;;;5075182;28;20576;-72
2021/12/28 03:55:46;;;;;;;0.00;0.00;;;8.90;99.90;;;;;;5075301;28;20032;-72
2021/12/28 03:58:12;;;;;;;1.10;1.00;;;9.00;99.90;;;;;;5074955;28;20040;-72
2021/12/28 04:00:44;;;;;;;1.75;1.17;;;9.00;99.90;;;;;;5075411;28;20085;-73
2021/12/28 04:03:12;;;;;;;0.10;0.10;;;9.00;99.90;;;;;;5075150;28;20074;-72
2021/12/28 04:05:39;;;;;;;0.05;0.05;;;9.00;99.90;;;;;;5073769;28;20064;-73
2021/12/28 04:08:06;;;;;;;0.00;0.00;;;9.00;99.90;;;;;;5073798;28;20033;-71
2021/12/28 04:10:38;;;;;;;0.00;0.00;;;9.10;99.90;;;;;;5073688;28;20031;-71
2021/12/28 04:13:04;;;;;;;0.00;0.00;;;9.10;99.90;;;;;;5057845;28;20025;-71
2021/12/28 04:15:30;;;;;;;0.00;0.00;;;9.10;99.90;;;;;;5073652;28;20029;-71
2021/12/28 04:17:56;;;;;;;0.00;0.00;;;9.10;99.90;;;;;;5073662;28;20035;-71
2021/12/28 04:20:23;;;;;;;0.00;0.00;;;9.10;99.90;;;;;;5056824;28;20040;-71
2021/12/28 04:22:49;;;;;;;0.00;0.00;;;9.10;99.90;;;;;;5074651;28;20021;-72
2021/12/28 04:25:17;;;;;;;0.70;0.70;;;9.10;99.90;;;;;;5074503;28;20131;-72
2021/12/28 04:27:44;;;;;;;0.00;0.00;;;9.00;99.90;;;;;;5073472;28;20078;-72
2021/12/28 04:30:13;;;;;;;10.10;0.35;;;9.00;99.90;;;;;;5073456;28;20640;-71
2021/12/28 04:32:39;;;;;;;0.10;0.10;;;8.90;99.90;;;;;;5073231;28;20489;-71
2021/12/28 04:35:06;;;;;;;1.25;0.85;;;8.80;99.90;;;;;;5073144;28;20123;-71
2021/12/28 04:37:33;;;;;;;0.10;0.10;;;8.70;99.90;;;;;;5074574;28;20116;-72
2021/12/28 04:39:59;;;;;;;0.40;0.40;;;8.70;99.90;;;;;;5074621;28;20404;-72
2021/12/28 04:42:27;;;;;;;2.33;2.13;;;8.60;99.90;;;;;;5073094;28;20036;-72
2021/12/28 04:44:53;;;;;;;0.55;0.55;;;8.60;99.90;;;;;;5074601;28;20354;-72
2021/12/28 04:47:18;;;;;;;0.50;0.50;;;8.50;99.90;;;;;;5073741;28;20045;-73
2021/12/28 04:49:45;;;;;;;0.65;0.65;;;8.50;99.90;;;;;;5073022;28;20028;-72
2021/12/28 04:52:11;;;;;;;3.10;1.35;;;8.40;99.90;;;;;;5072911;28;20548;-72
2021/12/28 04:54:37;;;;;;;1.00;1.00;;;8.40;99.90;;;;;;5073338;28;20032;-72
2021/12/28 04:57:05;;;;;;;0.15;0.15;;;8.40;99.90;;;;;;5072967;28;20029;-72
2021/12/28 04:59:32;;;;;;;0.10;0.10;;;8.40;99.90;;;;;;5073274;28;20055;-72
2021/12/28 05:01:58;;;;;;;0.00;0.00;;;8.40;99.90;;;;;;5072998;28;20044;-72
2021/12/28 05:04:24;;;;;;;0.00;0.00;;;8.30;99.90;;;;;;5073115;28;20487;-72
2021/12/28 05:06:53;;;;;;;0.00;0.00;;;8.30;99.90;;;;;;5073270;28;20472;-72
2021/12/28 05:09:19;;;;;;;0.00;0.00;;;8.40;99.90;;;;;;5072698;28;20029;-71
2021/12/28 05:11:46;;;;;;;0.00;0.00;;;8.40;99.90;;;;;;5072992;28;20035;-72
2021/12/28 05:14:15;;;;;;;0.13;0.13;;;8.40;99.90;;;;;;5073773;28;20059;-72
2021/12/28 05:16:41;;;;;;;0.00;0.00;;;8.30;99.90;;;;;;5073690;28;20511;-72
2021/12/28 05:19:07;;;;;;;0.32;0.32;;;8.30;99.90;;;;;;5072623;28;20040;-72
2021/12/28 05:21:36;;;;;;;0.00;0.00;;;8.20;99.90;;;;;;5072353;28;20040;-72
2021/12/28 05:24:02;;;;;;;0.00;0.00;;;8.20;99.90;;;;;;5055839;28;20024;-73
2021/12/28 05:26:28;;;;;;;0.00;0.00;;;8.20;99.90;;;;;;5072351;28;20032;-73
2021/12/28 05:28:54;;;;;;;33.30;2.85;;;8.10;99.90;;;;;;5072134;28;20029;-72
2021/12/28 05:31:21;;;;;;;0.00;0.00;;;8.10;99.90;;;;;;5073678;28;20102;-72
2021/12/28 05:33:49;;;;;;;22.38;1.40;;;8.10;99.90;;;;;;5073241;28;20485;-72
2021/12/28 05:36:15;;;;;;;0.40;0.40;;;8.20;99.90;;;;;;5073115;28;20029;-72
2021/12/28 05:38:41;;;;;;;0.10;0.10;;;8.20;99.90;;;;;;5073441;28;20032;-72
2021/12/28 05:41:07;;;;;;;0.10;0.10;;;8.20;99.90;;;;;;5073359;28;20762;-72
2021/12/28 05:43:33;;;;;;;0.15;0.15;;;8.20;99.90;;;;;;5073281;28;20436;-72
2021/12/28 05:45:58;;;;;;;0.25;0.25;;;8.20;99.90;;;;;;5071929;28;20040;-72
2021/12/28 05:48:24;;;;;;;0.00;0.00;;;8.20;99.90;;;;;;5071723;28;20028;-72
2021/12/28 05:50:50;;;;;;;0.10;0.10;;;8.30;99.90;;;;;;5073074;28;20031;-72
2021/12/28 05:53:16;;;;;;;0.00;0.00;;;8.30;99.90;;;;;;5072789;28;20496;-73
2021/12/28 05:55:43;;;;;;;0.00;0.00;;;8.30;99.90;;;;;;5071807;28;20040;-73
2021/12/28 05:58:09;;;;;;;0.35;0.35;;;8.20;99.90;;;;;;5072600;28;20378;-73
2021/12/28 06:00:35;;;;;;;0.00;0.00;;;8.20;99.90;;;;;;5071169;28;20033;-73
2021/12/28 06:03:01;;;;;;;0.00;0.00;;;8.20;99.90;;;;;;5072765;28;20035;-73
2021/12/28 06:05:48;;;;;;;0.22;0.22;;;8.20;99.90;;;;;;5072625;28;20041;-74
2021/12/28 06:08:14;;;;;;;0.25;0.25;;;8.20;99.90;;;;;;5071349;28;20028;-73
2021/12/28 06:10:40;;;;;;;0.00;0.00;;;8.20;99.90;;;;;;5072657;28;20386;-74
2021/12/28 06:13:07;;;;;;;0.10;0.10;;;8.30;99.90;;;;;;5072759;28;20063;-73
2021/12/28 06:15:33;;;;;;;0.57;0.57;;;8.20;99.90;;;;;;5071302;28;20044;-73
2021/12/28 06:17:58;;;;;;;0.00;0.00;;;8.30;99.90;;;;;;5072695;28;20028;-73
2021/12/28 06:20:26;;;;;;;0.00;0.00;;;8.30;99.90;;;;;;5072453;28;20066;-74
2021/12/28 06:22:52;;;;;;;0.03;0.03;;;8.40;99.90;;;;;;5072497;28;20056;-74
2021/12/28 06:25:18;;;;;;;0.20;0.20;;;8.40;99.90;;;;;;5072484;28;20081;-73
2021/12/28 06:27:44;;;;;;;0.65;0.65;;;8.30;99.90;;;;;;5072421;28;20028;-73
2021/12/28 06:30:10;;;;;;;0.00;0.00;;;8.40;99.90;;;;;;5072442;28;20040;-73
2021/12/28 06:32:36;;;;;;;0.10;0.10;;;8.30;99.90;;;;;;5071355;28;20029;-72
2021/12/28 06:35:02;;;;;;;0.00;0.00;;;8.30;99.90;;;;;;5072501;28;21065;-72
2021/12/28 06:37:28;;;;;;;0.00;0.00;;;8.30;99.90;;;;;;5070861;28;20169;-72
2021/12/28 06:39:54;;;;;;;0.00;0.00;;;8.30;99.90;;;;;;5071879;28;20111;-72
2021/12/28 06:42:20;;;;;;;0.00;0.00;;;8.40;99.90;;;;;;5072307;28;20031;-72
2021/12/28 06:44:47;;;;;;;0.03;0.03;;;8.30;99.90;;;;;;5072051;28;20484;-72
2021/12/28 06:47:13;;;;;;;0.00;0.00;;;8.30;99.90;;;;;;5070550;28;20166;-73
2021/12/28 06:49:41;;;;;;;0.00;0.00;;;8.40;99.90;;;;;;5070675;28;20035;-73
2021/12/28 06:52:09;;;;;;;0.00;0.00;;;8.30;99.90;;;;;;5070778;28;20117;-73
2021/12/28 06:54:37;;;;;;;0.00;0.00;;;8.30;99.90;;;;;;5072139;28;20040;-73
2021/12/28 06:57:09;;;;;;;0.00;0.00;;;8.40;99.90;;;;;;5070660;28;20485;-73
2021/12/28 06:59:45;;;;;;;0.00;0.00;;;8.40;99.90;;;;;;5070659;28;20119;-73
2021/12/28 07:02:16;;;;;;;0.85;0.85;;;8.30;99.90;;;;;;5071803;28;20026;-73
2021/12/28 07:04:43;;;;;;;0.20;0.20;;;8.30;99.90;;;;;;5071728;28;20066;-73
2021/12/28 07:07:10;;;;;;;0.00;0.00;;;8.40;99.90;;;;;;5071990;28;20115;-73
2021/12/28 07:09:36;;;;;;;2.63;2.28;;;8.30;99.90;;;;;;5070316;28;20032;-73
2021/12/28 07:12:02;;;;;;;1.13;1.08;;;8.40;99.90;;;;;;5071619;28;20033;-73
2021/12/28 07:14:28;;;;;;;0.00;0.00;;;8.30;99.90;;;;;;5053670;28;20036;-73
2021/12/28 07:16:56;;;;;;;1.48;0.85;;;8.30;99.90;;;;;;5070481;28;20024;-73
2021/12/28 07:19:23;;;;;;;0.05;0.05;;;8.30;99.90;;;;;;5070256;28;20044;-72
2021/12/28 07:21:48;;;;;;;0.00;0.00;;;8.30;99.90;;;;;;5070617;28;20033;-72
2021/12/28 07:24:14;;;;;;;0.00;0.00;;;8.30;99.90;;;;;;5070247;28;20051;-72
2021/12/28 07:26:41;;;;;;;0.00;0.00;;;8.30;99.90;;;;;;5070199;28;20029;-72
2021/12/28 07:29:07;;;;;;;0.00;0.00;;;8.30;99.90;;;;;;5071583;28;20040;-72
2021/12/28 07:31:33;;;;;;;0.00;0.00;;;8.30;99.90;;;;;;5070272;28;20508;-72
2021/12/28 07:33:59;;;;;;;0.00;0.00;;;8.30;99.90;;;;;;5070575;28;20096;-72
2021/12/28 07:36:26;;;;;;;0.00;0.00;;;8.30;99.90;;;;;;5070135;28;20056;-72
2021/12/28 07:38:52;;;;;;;0.00;0.00;;;8.30;99.90;;;;;;5070141;28;20035;-72
2021/12/28 07:41:17;;;;;;;0.00;0.00;;;8.30;99.90;;;;;;5071419;28;20024;-72
2021/12/28 07:43:43;;;;;;;0.10;0.10;;;8.30;99.90;;;;;;5070270;28;20032;-72
2021/12/28 07:46:09;;;;;;;0.30;0.30;;;8.30;99.90;;;;;;5069903;28;20033;-72
2021/12/28 07:48:35;;;;;;;0.00;0.00;;;8.30;99.90;;;;;;5071209;28;20020;-72
2021/12/28 07:51:01;;;;;;;0.43;0.43;;;8.30;99.90;;;;;;5070224;28;20040;-73
2021/12/28 07:53:27;;;;;;;0.00;0.00;;;8.20;99.90;;;;;;5071423;28;20028;-73
2021/12/28 07:55:54;;;;;;;0.03;0.03;;;8.30;99.90;;;;;;5070035;28;20033;-72
2021/12/28 07:58:19;;;;;;;0.00;0.00;;;8.20;99.90;;;;;;5069815;28;20033;-72
2021/12/28 08:00:45;;;;;;;0.08;0.08;;;8.20;99.90;;;;;;5070338;28;20031;-72
2021/12/28 08:03:11;;;;;;;0.00;0.00;;;8.20;99.90;;;;;;5070313;28;20410;-73
2021/12/28 08:05:37;;;;;;;0.00;0.00;;;8.20;99.90;;;;;;5071039;28;20036;-72
2021/12/28 08:08:04;;;;;;;0.00;0.00;;;8.20;99.90;;;;;;5070119;28;20028;-72
2021/12/28 08:10:31;;;;;;;0.00;0.00;;;8.20;99.90;;;;;;5071115;28;20366;-71
2021/12/28 08:12:57;;;;;;;0.00;0.00;;;8.20;99.90;;;;;;5070135;28;20025;-71
2021/12/28 08:15:25;;;;;;;0.00;0.00;;;8.20;99.90;;;;;;5071023;28;20032;-71
2021/12/28 08:17:52;;;;;;;0.20;0.20;;;8.30;99.90;;;;;;5071335;28;20044;-72
2021/12/28 08:20:19;;;;;;;0.03;0.03;;;8.30;99.90;;;;;;5071004;28;20404;-72
2021/12/28 08:22:47;;;;;;;0.00;0.00;;;8.30;99.90;;;;;;5071315;28;20082;-72
2021/12/28 08:25:18;;;;;;;21.55;1.98;;;8.30;99.90;;;;;;5073424;28;20041;-72
2021/12/28 08:27:45;;;;;;;0.00;0.00;;;8.30;99.90;;;;;;5057449;28;20064;-71
2021/12/28 08:30:13;;;;;;;0.08;0.08;;;8.30;99.90;;;;;;5073668;28;20036;-70
2021/12/28 08:32:40;;;;;;;0.10;0.10;;;8.30;99.90;;;;;;5056974;28;20040;-70
2021/12/28 08:35:07;;;;;;;0.00;0.00;;;8.30;99.90;;;;;;5074698;28;20025;-71
2021/12/28 08:37:33;;;;;;;0.00;0.00;;;8.30;99.90;;;;;;5073160;28;20119;-71
2021/12/28 08:40:00;;;;;;;0.00;0.00;;;8.30;99.90;;;;;;5073445;28;20462;-71
2021/12/28 08:42:26;;;;;;;2.80;0.93;;;8.30;99.90;;;;;;5074338;28;20028;-71
2021/12/28 08:44:52;;;;;;;0.00;0.00;;;8.30;99.90;;;;;;5074369;28;20485;-71
2021/12/28 08:47:19;;;;;;;0.00;0.00;;;8.40;99.90;;;;;;5074410;28;20485;-71
2021/12/28 08:49:45;;;;;;;0.00;0.00;;;8.30;99.90;;;;;;5056525;28;20465;-71
2021/12/28 08:52:11;;;;;;;0.00;0.00;;;8.40;99.90;;;;;;5074405;28;20032;-71
2021/12/28 08:54:36;;;;;;;0.00;0.00;;;8.40;99.90;;;;;;5074232;28;20470;-71
2021/12/28 08:57:03;;;;;;;0.10;0.10;;;8.40;99.90;;;;;;5074479;28;20036;-71
2021/12/28 08:59:29;;;;;;;0.08;0.08;;;8.40;99.90;;;;;;5072820;28;20107;-71
2021/12/28 09:01:56;;;;;;;0.00;0.00;;;8.50;99.90;;;;;;5074163;28;20119;-71
2021/12/28 09:04:22;;;;;;;0.08;0.08;;;8.50;99.90;;;;;;5073795;28;20028;-71
2021/12/28 09:06:49;;;;;;;0.00;0.00;;;8.60;99.90;;;;;;5073896;28;20039;-71
2021/12/28 09:09:15;;;;;;;0.00;0.00;;;8.60;99.90;;;;;;5074140;28;20029;-71
2021/12/28 09:11:43;;;;;;;0.45;0.45;;;8.60;99.90;;;;;;5072558;28;20025;-72
2021/12/28 09:14:09;;;;;;;0.28;0.28;;;8.70;99.90;;;;;;5074271;28;20040;-72
2021/12/28 09:16:35;;;;;;;0.00;0.00;;;8.80;99.90;;;;;;5072438;28;20514;-72
2021/12/28 09:19:01;;;;;;;0.10;0.10;;;8.80;99.90;;;;;;5074283;28;20043;-72
2021/12/28 09:21:27;;;;;;;0.00;0.00;;;8.80;99.90;;;;;;5074216;28;20044;-72
2021/12/28 09:23:53;;;;;;;0.03;0.03;;;8.90;99.90;;;;;;5074122;28;20044;-72
2021/12/28 09:26:19;;;;;;;0.00;0.00;;;9.00;99.90;;;;;;5073654;28;20032;-72
2021/12/28 09:28:45;;;;;;;0.00;0.00;;;9.10;99.90;;;;;;5073394;28;20031;-72
2021/12/28 09:31:10;;;;;;;0.00;0.00;;;9.10;99.90;;;;;;5074000;28;20131;-72
2021/12/28 09:33:37;;;;;;;0.00;0.00;;;9.10;99.90;;;;;;5072594;28;20078;-72
2021/12/28 09:36:05;;;;;;;0.00;0.00;;;9.20;99.90;;;;;;5055377;28;20089;-72
2021/12/28 09:38:31;;;;;;;0.00;0.00;;;9.20;99.90;;;;;;5073517;28;20037;-72
2021/12/28 09:40:57;;;;;;;2.63;1.23;;;9.20;99.90;;;;;;5072226;28;20054;-72
2021/12/28 09:43:22;;;;;;;0.00;0.00;;;9.30;99.90;;;;;;5073533;28;20565;-72
2021/12/28 09:45:48;;;;;;;0.00;0.00;;;9.40;99.90;;;;;;5073656;28;20051;-72
2021/12/28 09:48:14;;;;;;;0.00;0.00;;;9.40;99.90;;;;;;5073224;28;20048;-72
2021/12/28 09:50:42;;;;;;;0.00;0.00;;;9.40;99.90;;;;;;5073029;28;20128;-72
2021/12/28 09:53:10;;;;;;;0.00;0.00;;;9.40;99.90;;;;;;5071618;28;20389;-72
2021/12/28 09:55:36;;;;;;;0.00;0.00;;;9.40;99.90;;;;;;5055218;28;20032;-72
2021/12/28 09:58:03;;;;;;;0.00;0.00;;;9.50;99.90;;;;;;5073315;28;20131;-72
2021/12/28 10:00:30;;;;;;;0.00;0.00;;;9.50;99.90;;;;;;5072876;28;20437;-72
2021/12/28 10:02:56;;;;;;;0.00;0.00;;;9.50;99.90;;;;;;5071690;28;20036;-72
2021/12/28 10:05:27;;;;;;;0.00;0.00;;;9.60;99.90;;;;;;5071761;28;20020;-72
2021/12/28 10:07:57;;;;;;;0.00;0.00;;;9.60;99.90;;;;;;5072806;28;20094;-73
2021/12/28 10:10:35;;;;;;;0.00;0.00;;;9.60;99.90;;;;;;5072900;28;20040;-72
2021/12/28 10:13:06;;;;;;;0.00;0.00;;;9.60;99.90;;;;;;5072901;28;20114;-73
2021/12/28 10:15:37;;;;;;;0.10;0.10;;;9.60;99.90;;;;;;5055146;28;20115;-73
2021/12/28 10:18:10;;;;;;;0.75;0.68;;;9.70;99.90;;;;;;5071228;28;20468;-72
2021/12/28 10:20:56;;;;;;;0.22;0.22;;;9.70;99.90;;;;;;5072788;28;20036;-73
2021/12/28 10:23:27;;;;;;;0.00;0.00;;;9.70;99.90;;;;;;5054958;28;20078;-72
2021/12/28 10:26:00;;;;;;;0.00;0.00;;;9.80;99.90;;;;;;5054837;28;20055;-73
2021/12/28 10:28:32;;;;;;;0.08;0.08;;;9.80;99.90;;;;;;5072407;28;20071;-73
2021/12/28 10:31:10;;;;;;;0.00;0.00;;;9.90;99.90;;;;;;5072387;28;20029;-73
2021/12/28 10:33:38;;;;;;;0.00;0.00;;;10.00;99.90;;;;;;5072210;28;20397;-73
2021/12/28 10:36:09;;;;;;;0.00;0.00;;;10.00;99.90;;;;;;5070970;28;20031;-73
2021/12/28 10:38:40;;;;;;;0.00;0.00;;;10.10;99.90;;;;;;5072564;28;20093;-71
2021/12/28 10:41:09;;;;;;;0.10;0.10;;;10.10;99.90;;;;;;5071187;28;20040;-71
2021/12/28 10:43:38;;;;;;;0.00;0.00;;;10.20;99.90;;;;;;5071122;28;20028;-72
2021/12/28 10:46:08;;;;;;;0.00;0.00;;;10.20;99.90;;;;;;5071411;28;20094;-71
2021/12/28 10:48:45;;;;;;;0.00;0.00;;;10.10;99.90;;;;;;5071974;28;20032;-71
2021/12/28 10:51:23;;;;;;;0.00;0.00;;;10.30;99.90;;;;;;5071088;28;20032;-71
2021/12/28 10:56:40;;;;;;;0.00;0.00;;;10.30;99.90;;;;;;5072246;28;20047;-71
2021/12/28 10:59:09;;;;;;;0.00;0.00;;;10.40;99.90;;;;;;5072002;28;20648;-71
2021/12/28 11:01:38;;;;;;;0.00;0.00;;;10.40;99.90;;;;;;5070516;28;20032;-71
2021/12/28 11:04:09;;;;;;;0.00;0.00;;;10.50;99.90;;;;;;5071942;28;20381;-71
2021/12/28 11:06:39;;;;;;;0.00;0.00;;;10.50;99.90;;;;;;5070388;28;20025;-72
2021/12/28 11:09:13;;;;;;;0.65;0.65;;;10.60;99.90;;;;;;5070959;28;20078;-71
2021/12/28 11:11:40;;;;;;;0.10;0.10;;;10.60;99.90;;;;;;5071702;28;20031;-71
2021/12/28 11:14:28;;;;;;;0.35;0.32;;;10.70;99.90;;;;;;5072104;28;20070;-71
2021/12/28 11:17:00;;;;;;;0.30;0.17;;;10.70;99.90;;;;;;5072113;28;20116;-71
2021/12/28 11:19:34;;;;;;;0.00;0.00;;;10.80;99.90;;;;;;5071807;28;20119;-72
2021/12/28 11:22:05;;;;;;;0.00;0.00;;;10.70;99.90;;;;;;5070855;28;20067;-71
2021/12/28 11:24:35;;;;;;;0.00;0.00;;;10.80;99.90;;;;;;5071711;28;20112;-71
2021/12/28 11:27:03;;;;;;;0.00;0.00;;;10.70;99.90;;;;;;5072043;28;20040;-71
2021/12/28 11:29:38;;;;;;;0.00;0.00;;;10.70;99.90;;;;;;5071483;28;20055;-72
2021/12/28 11:32:18;;;;;;;0.00;0.00;;;10.80;99.90;;;;;;5070465;28;20028;-72
2021/12/28 11:34:45;;;;;;;0.05;0.05;;;10.80;99.90;;;;;;5070325;28;20478;-71
2021/12/28 11:37:20;;;;;;;0.00;0.00;;;10.80;99.90;;;;;;5070393;28;20033;-71
2021/12/28 11:39:52;;;;;;;0.00;0.00;;;10.80;99.90;;;;;;5070261;28;20025;-72
2021/12/28 11:42:21;;;;;;;0.00;0.00;;;10.80;99.90;;;;;;5070751;28;20047;-72
2021/12/28 11:44:49;;;;;;;0.00;0.00;;;10.80;99.90;;;;;;5071614;28;20094;-72
2021/12/28 11:47:16;;;;;;;0.00;0.00;;;10.80;99.90;;;;;;5070068;28;20047;-71
2021/12/28 11:49:45;;;;;;;0.00;0.00;;;10.80;99.90;;;;;;5071404;28;20509;-71
2021/12/28 11:52:16;;;;;;;0.00;0.00;;;10.80;99.90;;;;;;5070296;28;20029;-70
2021/12/28 11:54:46;;;;;;;0.05;0.05;;;10.80;99.90;;;;;;5071642;28;20029;-71
2021/12/28 11:57:19;;;;;;;0.00;0.00;;;10.80;99.90;;;;;;5072145;28;20507;-70
2021/12/28 11:59:58;;;;;;;0.00;0.00;;;10.80;99.90;;;;;;5075231;28;20109;-70
2021/12/28 12:02:45;;;;;;;0.00;0.00;;;10.80;99.90;;;;;;5074261;28;20029;-71
2021/12/28 12:05:21;;;;;;;0.43;0.43;;;10.80;99.90;;;;;;5075240;28;20024;-70
2021/12/28 12:08:10;;;;;;;0.28;0.28;;;10.80;99.90;;;;;;5074287;28;20024;-70
2021/12/28 12:10:41;;;;;;;0.10;0.10;;;10.80;99.90;;;;;;5074248;28;20060;-70
2021/12/28 12:13:13;;;;;;;0.00;0.00;;;10.80;99.90;;;;;;5074387;28;20517;-71
2021/12/28 12:15:43;;;;;;;0.10;0.10;;;10.80;99.90;;;;;;5057332;28;20028;-70
2021/12/28 12:18:15;;;;;;;0.00;0.00;;;10.90;99.90;;;;;;5057783;28;20036;-71
2021/12/28 12:20:49;;;;;;;0.30;0.30;;;10.90;99.90;;;;;;5074991;28;20029;-70
2021/12/28 12:23:22;;;;;;;0.13;0.13;;;10.90;99.90;;;;;;5074164;28;20035;-70
2021/12/28 12:26:07;;;;;;;0.00;0.00;;;11.00;99.90;;;;;;5073705;28;20549;-71
2021/12/28 12:28:37;;;;;;;0.00;0.00;;;11.00;99.90;;;;;;5074024;28;20372;-70
2021/12/28 12:31:07;;;;;;;0.00;0.00;;;11.00;99.90;;;;;;5074992;28;20024;-70
2021/12/28 12:33:43;;;;;;;0.05;0.05;;;11.10;99.90;;;;;;5073463;28;20497;-70
2021/12/28 12:36:32;;;;;;;0.00;0.00;;;11.10;99.90;;;;;;5075137;28;20123;-70
2021/12/28 12:39:00;;;;;;;0.00;0.00;;;11.10;99.90;;;;;;5073544;28;20552;-71
2021/12/28 12:41:50;;;;;;;0.00;0.00;;;11.10;99.90;;;;;;5074894;28;20033;-70
2021/12/28 12:44:26;;;;;;;0.00;0.00;;;11.10;99.90;;;;;;5075145;28;20031;-70
2021/12/28 12:46:54;;;;;;;0.05;0.05;;;11.10;99.90;;;;;;5073363;28;20774;-70
2021/12/28 12:49:28;;;;;;;0.00;0.00;;;11.10;99.90;;;;;;5073734;28;20032;-70
2021/12/28 12:52:05;;;;;;;0.00;0.00;;;11.20;99.90;;;;;;5057038;28;20071;-70
2021/12/28 12:54:44;;;;;;;0.00;0.00;;;11.20;99.90;;;;;;5074716;28;20075;-70
2021/12/28 12:57:16;;;;;;;0.45;0.45;;;11.20;99.90;;;;;;5073463;28;20039;-70
2021/12/28 12:59:45;;;;;;;0.00;0.00;;;11.10;99.90;;;;;;5073324;28;20183;-70
2021/12/28 13:02:43;;;;;;;0.00;0.00;;;11.10;99.90;;;;;;5074719;28;20480;-70
2021/12/28 13:05:11;;;;;;;1.25;0.70;;;11.10;99.90;;;;;;5073583;28;20047;-70
2021/12/28 13:07:38;;;;;;;0.10;0.10;;;11.10;99.90;;;;;;5074224;28;20443;-70